sensor_id;sensor_type;location;lat;lon;timestamp;pressure;altitude;pressure_sealevel;temperature;humidity
76590;BME280;65471;55.908;37.880;2023-07-16T00:00:01;99472.63;;;15.35;88.17
76590;BME280;65471;55.908;37.880;2023-07-16T00:02:31;99456.81;;;15.32;88.36
76590;BME280;65471;55.908;37.880;2023-07-16T00:04:58;99469.63;;;15.31;88.35
76590;BME280;65471;55.908;37.880;2023-07-16T00:07:24;99468.25;;;15.29;88.58
76590;BME280;65471;55.908;37.880;2023-07-16T00:09:51;99466.63;;;15.28;88.59
76590;BME280;65471;55.908;37.880;2023-07-16T00:12:18;99464.44;;;15.30;88.51
76590;BME280;65471;55.908;37.880;2023-07-16T00:14:45;99467.97;;;15.30;88.40
76590;BME280;65471;55.908;37.880;2023-07-16T00:17:12;99469.88;;;15.30;88.63
76590;BME280;65471;55.908;37.880;2023-07-16T00:19:39;99469.34;;;15.28;88.76
76590;BME280;65471;55.908;37.880;2023-07-16T00:22:05;99474.81;;;15.28;88.64
76590;BME280;65471;55.908;37.880;2023-07-16T00:24:32;99468.25;;;15.29;88.88
76590;BME280;65471;55.908;37.880;2023-07-16T00:26:59;99473.69;;;15.29;88.60
76590;BME280;65471;55.908;37.880;2023-07-16T00:29:26;99470.16;;;15.28;88.94
76590;BME280;65471;55.908;37.880;2023-07-16T00:31:53;99469.34;;;15.28;89.18
76590;BME280;65471;55.908;37.880;2023-07-16T00:34:19;99482.13;;;15.27;89.20
76590;BME280;65471;55.908;37.880;2023-07-16T00:36:46;99485.69;;;15.28;89.00
76590;BME280;65471;55.908;37.880;2023-07-16T00:39:13;99490.31;;;15.27;89.09
76590;BME280;65471;55.908;37.880;2023-07-16T00:41:40;99478.88;;;15.25;89.17
76590;BME280;65471;55.908;37.880;2023-07-16T00:44:07;99481.88;;;15.24;89.21
76590;BME280;65471;55.908;37.880;2023-07-16T00:46:34;99478.31;;;15.23;89.20
76590;BME280;65471;55.908;37.880;2023-07-16T00:49:01;99478.59;;;15.22;89.33
76590;BME280;65471;55.908;37.880;2023-07-16T00:51:28;99477.78;;;15.21;89.35
76590;BME280;65471;55.908;37.880;2023-07-16T00:53:56;99484.03;;;15.22;89.35
76590;BME280;65471;55.908;37.880;2023-07-16T00:56:23;99482.41;;;15.21;89.31
76590;BME280;65471;55.908;37.880;2023-07-16T00:58:50;99479.41;;;15.17;89.30
76590;BME280;65471;55.908;37.880;2023-07-16T01:01:17;99489.22;;;15.18;89.51
76590;BME280;65471;55.908;37.880;2023-07-16T01:03:44;99493.28;;;15.15;89.45
76590;BME280;65471;55.908;37.880;2023-07-16T01:06:18;99497.66;;;15.16;89.50
76590;BME280;65471;55.908;37.880;2023-07-16T01:11:26;99500.59;;;15.05;89.70
76590;BME280;65471;55.908;37.880;2023-07-16T01:13:53;99494.06;;;15.06;89.94
76590;BME280;65471;55.908;37.880;2023-07-16T01:16:23;99509.06;;;15.08;89.94
76590;BME280;65471;55.908;37.880;2023-07-16T01:18:50;99503.34;;;15.10;89.85
76590;BME280;65471;55.908;37.880;2023-07-16T01:21:20;99505.00;;;15.11;89.72
76590;BME280;65471;55.908;37.880;2023-07-16T01:32:23;99514.78;;;15.12;90.35
76590;BME280;65471;55.908;37.880;2023-07-16T01:34:52;99510.44;;;15.16;90.40
76590;BME280;65471;55.908;37.880;2023-07-16T01:37:19;99523.25;;;15.15;90.45
76590;BME280;65471;55.908;37.880;2023-07-16T01:39:47;99510.16;;;15.17;90.30
76590;BME280;65471;55.908;37.880;2023-07-16T01:42:13;99516.72;;;15.22;90.40
76590;BME280;65471;55.908;37.880;2023-07-16T01:44:40;99518.91;;;15.25;90.21
76590;BME280;65471;55.908;37.880;2023-07-16T01:50:09;99515.09;;;15.26;90.15
76590;BME280;65471;55.908;37.880;2023-07-16T01:52:36;99522.19;;;15.27;90.28
76590;BME280;65471;55.908;37.880;2023-07-16T01:55:03;99522.72;;;15.29;90.27
76590;BME280;65471;55.908;37.880;2023-07-16T01:57:30;99522.44;;;15.30;90.23
76590;BME280;65471;55.908;37.880;2023-07-16T01:59:57;99527.09;;;15.30;90.35
76590;BME280;65471;55.908;37.880;2023-07-16T02:02:24;99526.81;;;15.31;90.15
76590;BME280;65471;55.908;37.880;2023-07-16T02:04:51;99525.75;;;15.32;90.29
76590;BME280;65471;55.908;37.880;2023-07-16T02:07:18;99524.66;;;15.33;90.00
76590;BME280;65471;55.908;37.880;2023-07-16T02:09:45;99524.13;;;15.36;90.07
76590;BME280;65471;55.908;37.880;2023-07-16T02:12:11;99525.19;;;15.35;90.02
76590;BME280;65471;55.908;37.880;2023-07-16T02:14:38;99523.00;;;15.38;89.98
76590;BME280;65471;55.908;37.880;2023-07-16T02:17:05;99525.72;;;15.38;89.76
76590;BME280;65471;55.908;37.880;2023-07-16T02:19:32;99528.22;;;15.39;89.87
76590;BME280;65471;55.908;37.880;2023-07-16T02:21:59;99525.50;;;15.39;89.92
76590;BME280;65471;55.908;37.880;2023-07-16T02:24:25;99523.56;;;15.40;89.90
76590;BME280;65471;55.908;37.880;2023-07-16T02:26:52;99525.50;;;15.39;90.11
76590;BME280;65471;55.908;37.880;2023-07-16T02:29:19;99525.22;;;15.41;89.97
76590;BME280;65471;55.908;37.880;2023-07-16T02:31:46;99530.66;;;15.41;90.00
76590;BME280;65471;55.908;37.880;2023-07-16T02:34:15;99541.81;;;15.44;90.10
76590;BME280;65471;55.908;37.880;2023-07-16T02:36:42;99543.47;;;15.45;89.95
76590;BME280;65471;55.908;37.880;2023-07-16T02:39:09;99538.03;;;15.45;89.98
76590;BME280;65471;55.908;37.880;2023-07-16T02:41:36;99544.56;;;15.49;89.77
76590;BME280;65471;55.908;37.880;2023-07-16T02:44:06;99537.50;;;15.53;89.76
76590;BME280;65471;55.908;37.880;2023-07-16T02:46:34;99534.78;;;15.53;89.69
76590;BME280;65471;55.908;37.880;2023-07-16T02:49:02;99539.94;;;15.55;89.83
76590;BME280;65471;55.908;37.880;2023-07-16T02:51:29;99548.41;;;15.53;89.73
76590;BME280;65471;55.908;37.880;2023-07-16T02:53:56;99545.13;;;15.57;89.66
76590;BME280;65471;55.908;37.880;2023-07-16T02:56:23;99545.94;;;15.57;89.77
76590;BME280;65471;55.908;37.880;2023-07-16T02:58:49;99547.56;;;15.58;89.60
76590;BME280;65471;55.908;37.880;2023-07-16T03:01:16;99547.84;;;15.62;89.74
76590;BME280;65471;55.908;37.880;2023-07-16T03:03:43;99544.03;;;15.63;89.72
76590;BME280;65471;55.908;37.880;2023-07-16T03:06:10;99545.41;;;15.65;89.61
76590;BME280;65471;55.908;37.880;2023-07-16T03:08:37;99548.41;;;15.64;89.53
76590;BME280;65471;55.908;37.880;2023-07-16T03:11:04;99556.84;;;15.67;89.60
76590;BME280;65471;55.908;37.880;2023-07-16T03:13:31;99549.22;;;15.69;89.61
76590;BME280;65471;55.908;37.880;2023-07-16T03:15:57;99556.03;;;15.72;89.75
76590;BME280;65471;55.908;37.880;2023-07-16T03:18:28;99562.84;;;15.75;89.66
76590;BME280;65471;55.908;37.880;2023-07-16T03:20:57;99560.94;;;15.75;89.75
76590;BME280;65471;55.908;37.880;2023-07-16T03:23:24;99557.16;;;15.76;89.61
76590;BME280;65471;55.908;37.880;2023-07-16T03:25:51;99550.59;;;15.77;89.49
76590;BME280;65471;55.908;37.880;2023-07-16T03:28:18;99559.06;;;15.81;89.35
76590;BME280;65471;55.908;37.880;2023-07-16T03:30:49;99560.19;;;15.85;89.27
76590;BME280;65471;55.908;37.880;2023-07-16T03:33:16;99553.88;;;15.84;89.25
76590;BME280;65471;55.908;37.880;2023-07-16T03:35:44;99559.06;;;15.86;89.26
76590;BME280;65471;55.908;37.880;2023-07-16T03:38:12;99563.16;;;15.88;89.38
76590;BME280;65471;55.908;37.880;2023-07-16T03:40:39;99564.00;;;15.89;89.42
76590;BME280;65471;55.908;37.880;2023-07-16T03:43:06;99565.34;;;15.92;89.23
76590;BME280;65471;55.908;37.880;2023-07-16T03:45:33;99570.28;;;15.95;89.26
76590;BME280;65471;55.908;37.880;2023-07-16T03:48:01;99567.53;;;15.95;89.20
76590;BME280;65471;55.908;37.880;2023-07-16T03:50:28;99563.44;;;15.97;88.97
76590;BME280;65471;55.908;37.880;2023-07-16T03:52:55;99578.72;;;15.98;89.09
76590;BME280;65471;55.908;37.880;2023-07-16T03:55:22;99578.16;;;16.01;89.12
76590;BME280;65471;55.908;37.880;2023-07-16T03:57:49;99574.88;;;16.04;89.11
76590;BME280;65471;55.908;37.880;2023-07-16T04:00:15;99571.34;;;16.04;89.08
76590;BME280;65471;55.908;37.880;2023-07-16T04:02:42;99578.72;;;16.03;89.00
76590;BME280;65471;55.908;37.880;2023-07-16T04:05:09;99581.72;;;16.02;89.05
76590;BME280;65471;55.908;37.880;2023-07-16T04:07:36;99582.81;;;16.01;89.05
76590;BME280;65471;55.908;37.880;2023-07-16T04:10:03;99573.53;;;16.02;89.06
76590;BME280;65471;55.908;37.880;2023-07-16T04:12:30;99573.53;;;16.02;89.35
76590;BME280;65471;55.908;37.880;2023-07-16T04:14:58;99582.81;;;16.01;89.08
76590;BME280;65471;55.908;37.880;2023-07-16T04:17:25;99576.81;;;16.04;88.98
76590;BME280;65471;55.908;37.880;2023-07-16T04:19:52;99585.81;;;16.10;89.11
76590;BME280;65471;55.908;37.880;2023-07-16T04:22:19;99578.44;;;16.15;89.09
76590;BME280;65471;55.908;37.880;2023-07-16T04:24:46;99578.97;;;16.17;88.86
76590;BME280;65471;55.908;37.880;2023-07-16T04:27:13;99582.78;;;16.21;88.66
76590;BME280;65471;55.908;37.880;2023-07-16T04:29:40;99580.06;;;16.27;88.82
76590;BME280;65471;55.908;37.880;2023-07-16T04:32:07;99584.97;;;16.30;88.72
76590;BME280;65471;55.908;37.880;2023-07-16T04:34:34;99576.78;;;16.35;88.69
76590;BME280;65471;55.908;37.880;2023-07-16T04:37:00;99586.06;;;16.34;88.65
76590;BME280;65471;55.908;37.880;2023-07-16T04:39:27;99580.88;;;16.37;88.35
76590;BME280;65471;55.908;37.880;2023-07-16T04:41:54;99592.84;;;16.42;88.49
76590;BME280;65471;55.908;37.880;2023-07-16T04:44:21;99593.13;;;16.40;88.36
76590;BME280;65471;55.908;37.880;2023-07-16T04:46:47;99596.69;;;16.46;88.42
76590;BME280;65471;55.908;37.880;2023-07-16T04:49:14;99596.41;;;16.47;88.14
76590;BME280;65471;55.908;37.880;2023-07-16T04:51:41;99591.78;;;16.48;87.89
76590;BME280;65471;55.908;37.880;2023-07-16T04:54:09;99586.56;;;16.51;87.87
76590;BME280;65471;55.908;37.880;2023-07-16T04:56:36;99595.31;;;16.53;87.67
76590;BME280;65471;55.908;37.880;2023-07-16T04:59:02;99583.84;;;16.56;87.85
76590;BME280;65471;55.908;37.880;2023-07-16T05:01:29;99589.31;;;16.62;87.60
76590;BME280;65471;55.908;37.880;2023-07-16T05:03:56;99584.63;;;16.67;87.67
76590;BME280;65471;55.908;37.880;2023-07-16T05:06:23;99586.00;;;16.70;87.48
76590;BME280;65471;55.908;37.880;2023-07-16T05:08:50;99588.19;;;16.68;87.28
76590;BME280;65471;55.908;37.880;2023-07-16T05:11:17;99588.44;;;16.71;87.30
76590;BME280;65471;55.908;37.880;2023-07-16T05:13:44;99596.63;;;16.77;87.15
76590;BME280;65471;55.908;37.880;2023-07-16T05:16:10;99588.72;;;16.80;86.89
76590;BME280;65471;55.908;37.880;2023-07-16T05:18:37;99584.31;;;16.84;86.78
76590;BME280;65471;55.908;37.880;2023-07-16T05:21:04;99590.59;;;16.90;86.90
76590;BME280;65471;55.908;37.880;2023-07-16T05:23:31;99594.13;;;16.96;86.73
76590;BME280;65471;55.908;37.880;2023-07-16T05:25:58;99595.22;;;17.00;86.33
76590;BME280;65471;55.908;37.880;2023-07-16T05:28:25;99593.56;;;17.04;86.18
76590;BME280;65471;55.908;37.880;2023-07-16T05:31:02;99594.06;;;17.11;85.84
76590;BME280;65471;55.908;37.880;2023-07-16T05:33:29;99595.97;;;17.16;85.62
76590;BME280;65471;55.908;37.880;2023-07-16T05:35:56;99601.69;;;17.19;85.57
76590;BME280;65471;55.908;37.880;2023-07-16T05:38:23;99600.34;;;17.17;85.38
76590;BME280;65471;55.908;37.880;2023-07-16T05:40:50;99597.88;;;17.20;85.39
76590;BME280;65471;55.908;37.880;2023-07-16T05:43:17;99597.31;;;17.23;85.29
76590;BME280;65471;55.908;37.880;2023-07-16T05:45:43;99598.38;;;17.28;85.24
76590;BME280;65471;55.908;37.880;2023-07-16T05:48:10;99602.47;;;17.30;85.03
76590;BME280;65471;55.908;37.880;2023-07-16T05:50:38;99605.47;;;17.29;84.90
76590;BME280;65471;55.908;37.880;2023-07-16T05:53:05;99609.81;;;17.35;84.66
76590;BME280;65471;55.908;37.880;2023-07-16T05:55:32;99608.69;;;17.41;84.57
76590;BME280;65471;55.908;37.880;2023-07-16T05:57:59;99606.75;;;17.47;84.17
76590;BME280;65471;55.908;37.880;2023-07-16T06:00:26;99612.41;;;17.60;84.07
76590;BME280;65471;55.908;37.880;2023-07-16T06:02:54;99610.44;;;17.71;83.87
76590;BME280;65471;55.908;37.880;2023-07-16T06:05:22;99606.56;;;17.77;83.50
76590;BME280;65471;55.908;37.880;2023-07-16T06:07:48;99607.88;;;17.85;83.23
76590;BME280;65471;55.908;37.880;2023-07-16T06:10:15;99615.78;;;17.87;82.91
76590;BME280;65471;55.908;37.880;2023-07-16T06:12:42;99611.97;;;17.93;82.90
76590;BME280;65471;55.908;37.880;2023-07-16T06:15:09;99611.63;;;18.00;82.81
76590;BME280;65471;55.908;37.880;2023-07-16T06:17:36;99615.72;;;18.02;82.45
76590;BME280;65471;55.908;37.880;2023-07-16T06:20:04;99610.56;;;17.96;82.39
76590;BME280;65471;55.908;37.880;2023-07-16T06:22:32;99607.28;;;17.99;82.36
76590;BME280;65471;55.908;37.880;2023-07-16T06:24:59;99602.88;;;18.03;81.85
76590;BME280;65471;55.908;37.880;2023-07-16T06:27:28;99615.97;;;18.06;81.99
76590;BME280;65471;55.908;37.880;2023-07-16T06:29:54;99612.19;;;18.02;81.69
76590;BME280;65471;55.908;37.880;2023-07-16T06:32:21;99617.09;;;18.00;81.87
76590;BME280;65471;55.908;37.880;2023-07-16T06:34:48;99616.03;;;17.96;82.00
76590;BME280;65471;55.908;37.880;2023-07-16T06:37:15;99624.28;;;17.90;82.12
76590;BME280;65471;55.908;37.880;2023-07-16T06:39:42;99632.53;;;17.80;81.99
76590;BME280;65471;55.908;37.880;2023-07-16T06:42:09;99632.56;;;17.75;82.03
76590;BME280;65471;55.908;37.880;2023-07-16T06:44:35;99630.91;;;17.79;82.05
76590;BME280;65471;55.908;37.880;2023-07-16T06:47:03;99630.03;;;17.89;82.06
76590;BME280;65471;55.908;37.880;2023-07-16T06:49:30;99630.50;;;18.01;81.75
76590;BME280;65471;55.908;37.880;2023-07-16T06:52:00;99625.25;;;18.10;81.39
76590;BME280;65471;55.908;37.880;2023-07-16T06:54:28;99629.00;;;18.19;81.48
76590;BME280;65471;55.908;37.880;2023-07-16T06:56:55;99623.50;;;18.24;81.24
76590;BME280;65471;55.908;37.880;2023-07-16T06:59:22;99630.44;;;18.11;80.78
76590;BME280;65471;55.908;37.880;2023-07-16T07:01:49;99629.41;;;18.02;80.94
76590;BME280;65471;55.908;37.880;2023-07-16T07:04:16;99623.72;;;17.93;81.39
76590;BME280;65471;55.908;37.880;2023-07-16T07:06:43;99635.19;;;17.96;81.54
76590;BME280;65471;55.908;37.880;2023-07-16T07:09:09;99629.19;;;17.93;81.46
76590;BME280;65471;55.908;37.880;2023-07-16T07:11:36;99631.84;;;18.04;81.50
76590;BME280;65471;55.908;37.880;2023-07-16T07:14:03;99635.34;;;18.15;81.19
76590;BME280;65471;55.908;37.880;2023-07-16T07:16:30;99630.66;;;18.20;81.10
76590;BME280;65471;55.908;37.880;2023-07-16T07:18:57;99638.78;;;18.25;81.01
76590;BME280;65471;55.908;37.880;2023-07-16T07:21:24;99631.66;;;18.29;80.86
76590;BME280;65471;55.908;37.880;2023-07-16T07:23:51;99633.78;;;18.38;80.83
76590;BME280;65471;55.908;37.880;2023-07-16T07:26:17;99633.19;;;18.41;80.20
76590;BME280;65471;55.908;37.880;2023-07-16T07:28:44;99638.84;;;18.50;80.28
76590;BME280;65471;55.908;37.880;2023-07-16T07:31:11;99634.69;;;18.57;79.88
76590;BME280;65471;55.908;37.880;2023-07-16T07:33:38;99628.16;;;18.53;79.42
76590;BME280;65471;55.908;37.880;2023-07-16T07:36:05;99637.44;;;18.57;79.43
76590;BME280;65471;55.908;37.880;2023-07-16T07:38:32;99631.66;;;18.59;79.13
76590;BME280;65471;55.908;37.880;2023-07-16T07:40:59;99644.25;;;18.60;79.02
76590;BME280;65471;55.908;37.880;2023-07-16T07:43:26;99635.78;;;18.56;78.97
76590;BME280;65471;55.908;37.880;2023-07-16T07:45:53;99639.06;;;18.58;79.43
76590;BME280;65471;55.908;37.880;2023-07-16T07:48:20;99635.22;;;18.59;79.31
76590;BME280;65471;55.908;37.880;2023-07-16T07:50:48;99640.50;;;18.51;79.18
76590;BME280;65471;55.908;37.880;2023-07-16T07:53:18;99632.63;;;18.44;79.23
76590;BME280;65471;55.908;37.880;2023-07-16T07:55:45;99636.41;;;18.48;79.53
76590;BME280;65471;55.908;37.880;2023-07-16T07:58:12;99637.47;;;18.52;79.60
76590;BME280;65471;55.908;37.880;2023-07-16T08:00:39;99634.13;;;18.60;79.36
76590;BME280;65471;55.908;37.880;2023-07-16T08:03:06;99633.50;;;18.69;79.13
76590;BME280;65471;55.908;37.880;2023-07-16T08:05:33;99630.66;;;18.79;78.74
76590;BME280;65471;55.908;37.880;2023-07-16T08:08:00;99624.84;;;18.86;78.23
76590;BME280;65471;55.908;37.880;2023-07-16T08:10:27;99624.69;;;19.01;77.77
76590;BME280;65471;55.908;37.880;2023-07-16T08:12:54;99622.28;;;19.19;77.35
76590;BME280;65471;55.908;37.880;2023-07-16T08:15:21;99621.50;;;19.37;77.46
76590;BME280;65471;55.908;37.880;2023-07-16T08:17:48;99625.09;;;19.57;76.76
76590;BME280;65471;55.908;37.880;2023-07-16T08:20:15;99627.03;;;19.75;76.37
76590;BME280;65471;55.908;37.880;2023-07-16T08:22:42;99615.31;;;19.89;74.83
76590;BME280;65471;55.908;37.880;2023-07-16T08:25:09;99615.91;;;20.05;73.58
76590;BME280;65471;55.908;37.880;2023-07-16T08:27:37;99615.78;;;20.29;73.21
76590;BME280;65471;55.908;37.880;2023-07-16T08:30:04;99614.91;;;20.47;72.59
76590;BME280;65471;55.908;37.880;2023-07-16T08:32:31;99617.34;;;20.68;71.90
76590;BME280;65471;55.908;37.880;2023-07-16T08:34:58;99619.56;;;20.80;71.24
76590;BME280;65471;55.908;37.880;2023-07-16T08:37:25;99614.34;;;20.64;71.57
76590;BME280;65471;55.908;37.880;2023-07-16T08:39:52;99616.31;;;20.45;71.87
76590;BME280;65471;55.908;37.880;2023-07-16T08:42:20;99618.03;;;20.41;72.66
76590;BME280;65471;55.908;37.880;2023-07-16T08:44:50;99620.94;;;20.49;72.45
76590;BME280;65471;55.908;37.880;2023-07-16T08:47:18;99620.53;;;20.56;72.00
76590;BME280;65471;55.908;37.880;2023-07-16T08:50:03;99623.75;;;20.44;71.88
76590;BME280;65471;55.908;37.880;2023-07-16T08:52:30;99625.41;;;20.45;71.67
76590;BME280;65471;55.908;37.880;2023-07-16T08:54:57;99616.31;;;20.45;71.44
76590;BME280;65471;55.908;37.880;2023-07-16T08:57:25;99620.72;;;20.46;71.51
76590;BME280;65471;55.908;37.880;2023-07-16T08:59:53;99609.31;;;20.39;72.07
76590;BME280;65471;55.908;37.880;2023-07-16T09:02:20;99615.97;;;20.65;71.40
76590;BME280;65471;55.908;37.880;2023-07-16T09:04:48;99610.44;;;20.98;70.59
76590;BME280;65471;55.908;37.880;2023-07-16T09:07:15;99606.94;;;21.20;69.32
76590;BME280;65471;55.908;37.880;2023-07-16T09:09:42;99609.34;;;21.50;68.95
76590;BME280;65471;55.908;37.880;2023-07-16T09:12:12;99612.41;;;21.62;68.70
76590;BME280;65471;55.908;37.880;2023-07-16T09:14:42;99605.50;;;21.51;69.19
76590;BME280;65471;55.908;37.880;2023-07-16T09:17:09;99609.28;;;21.55;68.82
76590;BME280;65471;55.908;37.880;2023-07-16T09:19:36;99606.38;;;21.74;67.76
76590;BME280;65471;55.908;37.880;2023-07-16T09:22:03;99606.44;;;21.83;67.47
76590;BME280;65471;55.908;37.880;2023-07-16T09:24:30;99610.44;;;21.77;68.02
76590;BME280;65471;55.908;37.880;2023-07-16T09:26:56;99607.75;;;21.85;67.81
76590;BME280;65471;55.908;37.880;2023-07-16T09:29:25;99606.31;;;21.88;65.57
76590;BME280;65471;55.908;37.880;2023-07-16T09:31:59;99598.50;;;22.04;65.45
76590;BME280;65471;55.908;37.880;2023-07-16T09:34:27;99603.25;;;22.12;65.53
76590;BME280;65471;55.908;37.880;2023-07-16T09:36:56;99608.03;;;21.98;64.65
76590;BME280;65471;55.908;37.880;2023-07-16T09:39:22;99615.44;;;21.75;65.56
76590;BME280;65471;55.908;37.880;2023-07-16T09:41:51;99615.25;;;21.43;66.98
76590;BME280;65471;55.908;37.880;2023-07-16T09:44:19;99620.59;;;21.26;67.50
76590;BME280;65471;55.908;37.880;2023-07-16T09:46:46;99611.22;;;21.13;68.72
76590;BME280;65471;55.908;37.880;2023-07-16T09:49:15;99615.72;;;21.09;69.36
76590;BME280;65471;55.908;37.880;2023-07-16T09:51:43;99620.00;;;21.01;69.15
76590;BME280;65471;55.908;37.880;2023-07-16T09:54:13;99622.22;;;20.99;68.92
76590;BME280;65471;55.908;37.880;2023-07-16T09:56:52;99621.41;;;20.98;68.11
76590;BME280;65471;55.908;37.880;2023-07-16T09:59:23;99624.06;;;20.90;68.38
76590;BME280;65471;55.908;37.880;2023-07-16T10:01:52;99634.66;;;20.82;68.82
76590;BME280;65471;55.908;37.880;2023-07-16T10:04:19;99630.31;;;20.62;69.13
76590;BME280;65471;55.908;37.880;2023-07-16T10:07:17;99636.19;;;20.56;69.34
76590;BME280;65471;55.908;37.880;2023-07-16T10:09:55;99635.78;;;20.48;70.23
76590;BME280;65471;55.908;37.880;2023-07-16T10:12:25;99635.97;;;20.38;70.60
76590;BME280;65471;55.908;37.880;2023-07-16T10:14:56;99633.06;;;20.29;71.11
76590;BME280;65471;55.908;37.880;2023-07-16T10:17:31;99626.94;;;20.18;71.36
76590;BME280;65471;55.908;37.880;2023-07-16T10:22:46;99628.16;;;20.12;71.86
76590;BME280;65471;55.908;37.880;2023-07-16T10:27:48;99623.66;;;20.16;71.45
76590;BME280;65471;55.908;37.880;2023-07-16T10:30:16;99622.78;;;20.21;71.78
76590;BME280;65471;55.908;37.880;2023-07-16T10:32:43;99620.47;;;20.28;71.48
76590;BME280;65471;55.908;37.880;2023-07-16T10:35:11;99622.81;;;20.35;70.85
76590;BME280;65471;55.908;37.880;2023-07-16T10:37:38;99633.94;;;20.44;70.93
76590;BME280;65471;55.908;37.880;2023-07-16T10:40:10;99624.97;;;20.52;71.05
76590;BME280;65471;55.908;37.880;2023-07-16T10:42:37;99624.91;;;20.57;70.86
76590;BME280;65471;55.908;37.880;2023-07-16T10:45:07;99612.66;;;20.68;69.64
76590;BME280;65471;55.908;37.880;2023-07-16T10:47:35;99624.53;;;20.78;70.00
76590;BME280;65471;55.908;37.880;2023-07-16T10:50:05;99618.75;;;20.93;70.00
76590;BME280;65471;55.908;37.880;2023-07-16T10:52:32;99622.13;;;21.04;69.55
76590;BME280;65471;55.908;37.880;2023-07-16T10:55:00;99629.56;;;21.17;69.04
76590;BME280;65471;55.908;37.880;2023-07-16T10:57:28;99624.97;;;21.27;68.61
76590;BME280;65471;55.908;37.880;2023-07-16T10:59:56;99619.97;;;21.43;67.79
76590;BME280;65471;55.908;37.880;2023-07-16T11:02:25;99621.94;;;21.79;67.38
76590;BME280;65471;55.908;37.880;2023-07-16T11:04:52;99617.66;;;21.86;67.05
76590;BME280;65471;55.908;37.880;2023-07-16T11:07:24;99612.06;;;22.00;66.76
76590;BME280;65471;55.908;37.880;2023-07-16T11:09:52;99622.47;;;22.03;66.35
76590;BME280;65471;55.908;37.880;2023-07-16T11:12:21;99611.94;;;21.83;65.66
76590;BME280;65471;55.908;37.880;2023-07-16T11:14:53;99615.47;;;21.61;66.32
76590;BME280;65471;55.908;37.880;2023-07-16T11:17:21;99612.44;;;21.34;66.40
76590;BME280;65471;55.908;37.880;2023-07-16T11:19:51;99611.53;;;21.11;67.06
76590;BME280;65471;55.908;37.880;2023-07-16T11:22:18;99619.38;;;20.90;67.26
76590;BME280;65471;55.908;37.880;2023-07-16T11:24:46;99614.09;;;20.94;67.44
76590;BME280;65471;55.908;37.880;2023-07-16T11:27:15;99613.28;;;21.21;66.19
76590;BME280;65471;55.908;37.880;2023-07-16T11:29:51;99607.94;;;21.66;65.66
76590;BME280;65471;55.908;37.880;2023-07-16T11:32:41;99605.97;;;22.03;65.04
76590;BME280;65471;55.908;37.880;2023-07-16T11:35:15;99609.91;;;22.65;62.89
76590;BME280;65471;55.908;37.880;2023-07-16T11:37:43;99592.91;;;23.87;59.01
76590;BME280;65471;55.908;37.880;2023-07-16T11:40:14;99597.75;;;23.82;58.26
76590;BME280;65471;55.908;37.880;2023-07-16T11:42:41;99599.53;;;23.95;59.14
76590;BME280;65471;55.908;37.880;2023-07-16T11:45:17;99596.94;;;25.11;56.42
76590;BME280;65471;55.908;37.880;2023-07-16T11:47:45;99602.75;;;25.18;55.54
76590;BME280;65471;55.908;37.880;2023-07-16T11:50:12;99590.69;;;25.74;54.41
76590;BME280;65471;55.908;37.880;2023-07-16T11:52:40;99599.13;;;26.20;52.67
76590;BME280;65471;55.908;37.880;2023-07-16T11:55:07;99606.66;;;26.31;52.11
76590;BME280;65471;55.908;37.880;2023-07-16T11:57:35;99601.41;;;26.51;52.86
76590;BME280;65471;55.908;37.880;2023-07-16T12:00:03;99602.63;;;27.24;51.67
76590;BME280;65471;55.908;37.880;2023-07-16T12:02:33;99598.00;;;27.03;50.82
76590;BME280;65471;55.908;37.880;2023-07-16T12:05:00;99612.22;;;26.90;50.29
76590;BME280;65471;55.908;37.880;2023-07-16T12:07:32;99603.03;;;26.64;51.22
76590;BME280;65471;55.908;37.880;2023-07-16T12:10:03;99611.81;;;26.21;51.86
76590;BME280;65471;55.908;37.880;2023-07-16T12:12:32;99611.84;;;26.33;50.97
76590;BME280;65471;55.908;37.880;2023-07-16T12:14:59;99608.88;;;26.05;50.88
76590;BME280;65471;55.908;37.880;2023-07-16T12:17:27;99610.41;;;25.72;50.71
76590;BME280;65471;55.908;37.880;2023-07-16T12:19:55;99600.75;;;25.36;51.32
76590;BME280;65471;55.908;37.880;2023-07-16T12:22:22;99595.84;;;25.03;51.52
76590;BME280;65471;55.908;37.880;2023-07-16T12:24:50;99591.63;;;24.67;53.03
76590;BME280;65471;55.908;37.880;2023-07-16T12:27:17;99592.03;;;24.22;53.37
76590;BME280;65471;55.908;37.880;2023-07-16T12:29:44;99587.84;;;23.72;54.69
76590;BME280;65471;55.908;37.880;2023-07-16T12:32:13;99592.50;;;23.36;55.99
76590;BME280;65471;55.908;37.880;2023-07-16T12:34:40;99588.03;;;23.00;56.95
76590;BME280;65471;55.908;37.880;2023-07-16T12:37:06;99596.97;;;22.74;57.22
76590;BME280;65471;55.908;37.880;2023-07-16T12:39:33;99593.66;;;22.55;57.17
76590;BME280;65471;55.908;37.880;2023-07-16T12:42:00;99591.44;;;22.34;58.33
76590;BME280;65471;55.908;37.880;2023-07-16T12:44:27;99593.56;;;22.15;59.58
76590;BME280;65471;55.908;37.880;2023-07-16T12:46:54;99598.44;;;21.95;60.62
76590;BME280;65471;55.908;37.880;2023-07-16T12:49:21;99601.34;;;21.76;61.25
76590;BME280;65471;55.908;37.880;2023-07-16T12:51:47;99603.03;;;21.63;61.88
76590;BME280;65471;55.908;37.880;2023-07-16T12:54:14;99602.63;;;21.56;62.49
76590;BME280;65471;55.908;37.880;2023-07-16T12:56:41;99593.97;;;21.49;63.04
76590;BME280;65471;55.908;37.880;2023-07-16T12:59:08;99595.91;;;21.48;63.47
76590;BME280;65471;55.908;37.880;2023-07-16T13:01:35;99606.09;;;21.48;63.53
76590;BME280;65471;55.908;37.880;2023-07-16T13:04:02;99596.00;;;21.57;62.99
76590;BME280;65471;55.908;37.880;2023-07-16T13:06:29;99592.41;;;21.70;63.28
76590;BME280;65471;55.908;37.880;2023-07-16T13:08:56;99600.13;;;21.82;62.78
76590;BME280;65471;55.908;37.880;2023-07-16T13:11:24;99596.31;;;21.92;62.71